Airport View

Enter AWOS ICAO identifier for current METAR.

ex. KFNL

KFVE 080253Z AUTO 18010G19KT 10SM FEW120 21/15 A2997 RMK AO2 SLP145 T02110150 58008

8 Jul 2020 03:37

Frequency: 135.725

Phone: 207-543-7456

Other Area AWOS: KFTK - CYSL - CWIY - KCAR

TAF KFVE 072343Z 0800/0824 17008KT P6SM BKN050 FM080600 17008KT 5SM -SHRA OVC030 WS020/23035KT FM080900 18008KT 2SM -RA BR OVC007 WS020/24035KT FM081600 20009KT 5SM -SHRA BKN008 FM082000 20009KT P6SM VCSH BKN015